Time;durP1;ratioP1;P1;durP2;ratioP2;P2;SDS_P1;SDS_P2;PMS_P1;PMS_P2;Temp;Humidity;BMP_temperature;BMP_pressure;BME280_temperature;BME280_humidity;BME280_pressure;Samples;Min_cycle;Max_cycle;Signal;HPM_P1;HPM_P2
2021/09/15 00:01:51;;;;;;;;;6.75;5.75;;;;;20.64;76.34;99869.78;5021110;28;47182;-86
2021/09/15 00:04:16;;;;;;;;;6.75;5.50;;;;;20.62;76.47;99856.47;5021378;28;45215;-87
2021/09/15 00:06:41;;;;;;;;;5.00;5.00;;;;;20.72;76.00;99858.16;5039509;28;45376;-87
2021/09/15 00:09:06;;;;;;;;;5.25;5.25;;;;;20.75;75.81;99864.09;5021081;28;45294;-88
2021/09/15 00:11:32;;;;;;;;;6.50;5.50;;;;;20.71;76.08;99853.78;5038581;28;45592;-87
2021/09/15 00:13:57;;;;;;;;;6.00;6.00;;;;;20.78;76.02;99863.75;5021504;28;45247;-87
2021/09/15 00:16:22;;;;;;;;;7.50;5.25;;;;;20.86;75.36;99879.97;5021395;28;45302;-87
2021/09/15 00:18:48;;;;;;;;;6.00;6.00;;;;;20.83;75.27;99874.88;5039451;28;45305;-88
2021/09/15 00:21:13;;;;;;;;;5.50;5.25;;;;;20.81;75.53;99874.22;5020761;28;46281;-87
2021/09/15 00:23:38;;;;;;;;;5.00;5.00;;;;;20.76;75.28;99852.25;5039333;28;45244;-88
2021/09/15 00:26:04;;;;;;;;;6.75;6.75;;;;;20.99;75.64;99889.41;5021177;28;45293;-87
2021/09/15 00:28:29;;;;;;;;;4.50;4.50;;;;;20.93;75.84;99868.47;5039233;28;45132;-87
2021/09/15 00:30:54;;;;;;;;;5.25;5.25;;;;;20.96;75.14;99865.44;5020628;28;47572;-87
2021/09/15 00:33:20;;;;;;;;;6.25;6.00;;;;;21.01;75.67;99865.78;5021035;28;45588;-87
2021/09/15 00:35:45;;;;;;;;;6.50;6.50;;;;;21.12;75.41;99870.84;5021347;28;45284;-87
2021/09/15 00:38:10;;;;;;;;;5.25;4.50;;;;;20.99;75.13;99847.03;5020890;28;45371;-88
2021/09/15 00:40:36;;;;;;;;;6.00;6.00;;;;;21.05;75.37;99853.63;5038748;28;45587;-87
2021/09/15 00:43:01;;;;;;;;;8.00;5.00;;;;;21.04;74.91;99850.06;5039144;28;45213;-87
2021/09/15 00:45:26;;;;;;;;;5.00;5.00;;;;;21.02;74.88;99854.81;5038922;28;45233;-87
2021/09/15 00:47:52;;;;;;;;;6.25;5.25;;;;;21.07;74.63;99866.97;5021017;28;45231;-88
2021/09/15 00:50:17;;;;;;;;;6.00;5.00;;;;;21.04;74.96;99863.56;5020283;28;47314;-87
2021/09/15 00:52:44;;;;;;;;;7.25;5.00;;;;;20.93;74.89;99838.75;5038848;28;45120;-87
2021/09/15 00:55:10;;;;;;;;;5.75;4.00;;;;;21.03;75.00;99852.94;5037493;28;45244;-87
2021/09/15 00:57:35;;;;;;;;;5.00;5.00;;;;;21.03;75.29;99851.09;5020656;28;45149;-87
2021/09/15 01:00:01;;;;;;;;;10.25;6.00;;;;;21.04;75.33;99855.47;5038133;28;45827;-87
2021/09/15 01:02:27;;;;;;;;;5.25;5.25;;;;;21.06;75.23;99859.88;5038546;28;45251;-87
2021/09/15 01:04:53;;;;;;;;;8.75;7.50;;;;;21.02;74.67;99853.94;5037456;28;45342;-87
2021/09/15 01:07:18;;;;;;;;;7.75;6.00;;;;;21.09;74.86;99864.94;5020773;28;45251;-87
2021/09/15 01:09:44;;;;;;;;;7.00;7.00;;;;;21.01;74.84;99846.88;5020440;28;47077;-87
2021/09/15 01:12:12;;;;;;;;;6.50;6.50;;;;;21.11;74.81;99869.16;5036695;28;45782;-88
2021/09/15 01:14:41;;;;;;;;;7.50;7.00;;;;;21.04;74.91;99855.47;5020570;28;45223;-88
2021/09/15 01:17:06;;;;;;;;;5.00;5.00;;;;;21.04;74.74;99850.06;5020583;28;45303;-87
2021/09/15 01:19:32;;;;;;;;;5.00;5.00;;;;;21.08;75.24;99853.28;5038318;28;46217;-88
2021/09/15 01:21:58;;;;;;;;;6.00;4.25;;;;;21.03;74.74;99848.41;5037901;28;45215;-87
2021/09/15 01:24:25;;;;;;;;;6.50;5.50;;;;;21.09;75.12;99863.09;5038350;28;45282;-89
2021/09/15 01:26:51;;;;;;;;;8.25;7.25;;;;;20.93;74.70;99844.16;5038269;28;45400;-87
2021/09/15 01:29:22;;;;;;;;;7.00;6.00;;;;;21.00;75.14;99856.81;5037957;28;46716;-87
2021/09/15 01:32:06;;;;;;;;;8.25;5.50;;;;;21.02;75.42;99857.50;5037899;28;45526;-87
2021/09/15 01:34:38;;;;;;;;;5.75;4.50;;;;;21.03;74.94;99858.34;5038356;28;45262;-87
2021/09/15 01:37:05;;;;;;;;;5.00;5.00;;;;;21.00;75.02;99847.88;5038468;28;45191;-88
2021/09/15 01:39:31;;;;;;;;;6.25;6.25;;;;;20.94;75.53;99835.88;5037678;28;45403;-88
2021/09/15 01:42:01;;;;;;;;;6.00;5.00;;;;;20.91;74.80;99838.94;5036438;28;45538;-87
2021/09/15 01:44:35;;;;;;;;;5.00;5.00;;;;;20.97;75.05;99854.47;5019855;28;45217;-87
2021/09/15 01:47:02;;;;;;;;;8.00;6.00;;;;;20.96;74.92;99857.34;5037853;28;45290;-87
2021/09/15 01:49:30;;;;;;;;;5.25;5.25;;;;;20.83;75.25;99833.53;5037832;28;45551;-87
2021/09/15 01:51:56;;;;;;;;;6.00;6.00;;;;;20.88;75.40;99849.22;5019408;28;45614;-87
2021/09/15 01:54:21;;;;;;;;;6.75;6.00;;;;;20.85;74.82;99839.63;5038156;28;45224;-87
2021/09/15 01:56:47;;;;;;;;;7.50;7.50;;;;;20.77;74.54;99832.34;5020038;28;45389;-87
2021/09/15 01:59:12;;;;;;;;;6.50;5.75;;;;;20.85;74.75;99855.84;5037811;28;45278;-88
2021/09/15 02:01:38;;;;;;;;;5.25;4.25;;;;;20.79;74.92;99848.38;5037509;28;45338;-86
2021/09/15 02:04:03;;;;;;;;;7.25;5.25;;;;;20.71;75.59;99845.66;5019934;28;45497;-87
2021/09/15 02:06:28;;;;;;;;;6.25;5.00;;;;;20.75;75.56;99850.59;5037526;28;45227;-87
2021/09/15 02:08:54;;;;;;;;;7.75;6.75;;;;;20.80;75.26;99867.13;5019360;28;47479;-87
2021/09/15 02:11:19;;;;;;;;;5.00;5.00;;;;;20.80;75.02;99872.53;5037376;28;45188;-88
2021/09/15 02:13:44;;;;;;;;;5.50;5.50;;;;;20.71;75.59;99848.38;5037764;28;45184;-88
2021/09/15 02:16:10;;;;;;;;;4.50;4.50;;;;;20.79;75.52;99872.69;5037156;28;45349;-87
2021/09/15 02:18:35;;;;;;;;;6.00;5.00;;;;;20.81;75.48;99884.19;5037311;28;46359;-87
2021/09/15 02:21:00;;;;;;;;;4.75;4.25;;;;;20.74;75.08;99869.69;5037349;28;45348;-88
2021/09/15 02:23:26;;;;;;;;;3.25;3.25;;;;;20.82;75.04;99885.88;5019721;28;45208;-88
2021/09/15 02:25:52;;;;;;;;;6.00;6.00;;;;;20.61;75.02;99846.66;5019598;28;45199;-87
2021/09/15 02:28:18;;;;;;;;;6.00;5.50;;;;;20.82;75.17;99875.91;5037529;28;45469;-88
2021/09/15 02:30:43;;;;;;;;;5.25;4.25;;;;;20.81;75.56;99868.81;5019402;28;45208;-86
2021/09/15 02:33:08;;;;;;;;;5.50;3.25;;;;;20.66;74.79;99847.03;5037598;28;45291;-88
2021/09/15 02:35:34;;;;;;;;;5.00;5.00;;;;;20.67;75.14;99845.19;5037765;28;45257;-87
2021/09/15 02:37:59;;;;;;;;;5.00;5.00;;;;;20.60;75.38;99839.56;5036064;28;48262;-86
2021/09/15 02:40:24;;;;;;;;;6.00;5.00;;;;;20.66;75.51;99832.66;5019147;28;45251;-87
2021/09/15 02:42:49;;;;;;;;;6.50;5.75;;;;;20.79;75.09;99854.66;5037810;28;45267;-88
2021/09/15 02:45:15;;;;;;;;;4.50;4.50;;;;;20.70;75.23;99847.53;5037600;28;45276;-87
2021/09/15 02:47:40;;;;;;;;;5.00;4.25;;;;;20.80;74.74;99869.00;5037584;28;46830;-87
2021/09/15 02:50:06;;;;;;;;;7.25;6.00;;;;;20.79;75.23;99865.47;5036905;28;45215;-88
2021/09/15 02:52:31;;;;;;;;;4.75;4.75;;;;;20.71;75.45;99864.56;5037310;28;45224;-87
2021/09/15 02:54:57;;;;;;;;;7.50;6.00;;;;;20.71;75.40;99870.84;5035981;28;45399;-87
2021/09/15 02:57:22;;;;;;;;;5.00;5.00;;;;;20.69;75.29;99876.41;5037167;28;45480;-87
2021/09/15 02:59:47;;;;;;;;;5.75;4.75;;;;;20.61;74.80;99867.44;5019756;28;45281;-87
2021/09/15 03:02:12;;;;;;;;;7.00;6.25;;;;;20.40;75.30;99832.81;5038530;28;45271;-87
2021/09/15 03:04:38;;;;;;;;;7.75;5.50;;;;;20.65;75.32;99879.56;5038003;28;45239;-87
2021/09/15 03:07:03;;;;;;;;;8.00;7.25;;;;;20.48;75.20;99849.03;5037207;28;45504;-88
2021/09/15 03:09:29;;;;;;;;;9.25;6.75;;;;;20.55;75.05;99857.28;5037606;28;45220;-87
2021/09/15 03:11:54;;;;;;;;;4.75;4.75;;;;;20.61;75.73;99867.44;5019557;28;45369;-87
2021/09/15 03:14:19;;;;;;;;;7.50;5.00;;;;;20.58;75.56;99860.50;5037909;28;45279;-87
2021/09/15 03:16:44;;;;;;;;;4.00;4.00;;;;;20.55;75.47;99857.28;5037109;28;46198;-87
2021/09/15 03:19:10;;;;;;;;;6.00;5.25;;;;;20.62;75.85;99866.41;5018951;28;45386;-87
2021/09/15 03:21:35;;;;;;;;;6.00;4.00;;;;;20.61;75.83;99870.13;5038313;28;45222;-87
2021/09/15 03:24:01;;;;;;;;;5.00;5.00;;;;;20.63;76.23;99868.09;5038643;28;45092;-87
2021/09/15 03:26:26;;;;;;;;;7.00;6.00;;;;;20.58;76.04;99854.25;5019423;28;47013;-86
2021/09/15 03:28:51;;;;;;;;;5.50;5.00;;;;;20.57;76.08;99855.28;5040114;28;45132;-86
2021/09/15 03:31:17;;;;;;;;;7.75;5.00;;;;;20.61;76.83;99879.06;5041140;28;45454;-86
2021/09/15 03:33:42;;;;;;;;;5.25;5.25;;;;;20.51;76.84;99863.03;5040762;28;45192;-86
2021/09/15 03:36:08;;;;;;;;;4.50;4.50;;;;;20.48;76.74;99868.75;5023007;28;46988;-86
2021/09/15 03:38:33;;;;;;;;;5.00;5.00;;;;;20.42;76.33;99863.16;5041458;28;45298;-86
2021/09/15 03:40:59;;;;;;;;;6.75;6.00;;;;;20.39;76.92;99863.50;5023563;28;45193;-87
2021/09/15 03:43:24;;;;;;;;;5.00;5.00;;;;;20.40;76.74;99876.00;5041844;28;45252;-86
2021/09/15 03:45:49;;;;;;;;;7.50;6.00;;;;;20.20;76.84;99843.88;5041437;28;45530;-86
2021/09/15 03:48:14;;;;;;;;;5.25;5.25;;;;;20.12;76.98;99847.44;5041542;28;45245;-86
2021/09/15 03:50:40;;;;;;;;;6.50;5.00;;;;;20.11;76.75;99852.97;5039754;28;45232;-88
2021/09/15 03:53:05;;;;;;;;;6.00;5.25;;;;;20.09;77.67;99865.78;5040842;28;45248;-88
2021/09/15 03:55:30;;;;;;;;;6.25;4.75;;;;;19.89;77.84;99849.84;5041054;28;46367;-88
2021/09/15 03:57:56;;;;;;;;;5.75;4.75;;;;;19.96;77.72;99864.38;5023142;28;46070;-88
2021/09/15 04:00:21;;;;;;;;;7.50;6.00;;;;;19.86;77.84;99868.22;5042108;28;45364;-88
2021/09/15 04:02:46;;;;;;;;;5.75;5.75;;;;;19.82;77.94;99868.56;5023425;28;45228;-88
2021/09/15 04:05:12;;;;;;;;;7.25;4.75;;;;;19.80;78.33;99869.72;5023364;28;46797;-87
2021/09/15 04:07:39;;;;;;;;;6.75;5.00;;;;;19.62;78.48;99842.78;5023273;28;45302;-88
2021/09/15 04:10:05;;;;;;;;;7.25;6.25;;;;;19.73;78.27;99869.47;5024729;28;45188;-87
2021/09/15 04:12:30;;;;;;;;;6.00;5.00;;;;;19.69;78.79;99856.50;5059883;28;45293;-87
2021/09/15 04:14:56;;;;;;;;;5.00;5.00;;;;;19.71;79.43;99868.81;5035192;28;46834;-88
2021/09/15 04:17:21;;;;;;;;;3.50;3.50;;;;;19.69;79.00;99853.78;5036360;28;45651;-88
2021/09/15 04:19:46;;;;;;;;;5.00;5.00;;;;;19.73;78.90;99860.56;5055423;28;45199;-88
2021/09/15 04:22:18;;;;;;;;;4.75;4.00;;;;;19.71;79.31;99852.63;5039567;28;45026;-88
2021/09/15 04:32:59;;;;;;;;;4.75;4.75;;;;;19.80;79.80;99862.47;5059046;28;45177;-88
2021/09/15 04:35:26;;;;;;;;;3.25;3.25;;;;;19.92;79.78;99879.19;5041020;28;47095;-88
2021/09/15 04:37:51;;;;;;;;;4.50;4.50;;;;;19.84;79.81;99865.69;5026880;28;45681;-87
2021/09/15 04:40:17;;;;;;;;;6.75;5.75;;;;;19.92;79.79;99872.97;5038924;28;45289;-89
2021/09/15 04:42:42;;;;;;;;;5.00;4.50;;;;;19.83;79.48;99864.84;5039215;28;45292;-87
2021/09/15 04:45:08;;;;;;;;;3.75;3.00;;;;;19.93;79.16;99886.28;5020672;28;48060;-89
2021/09/15 04:47:35;;;;;;;;;4.50;4.25;;;;;19.80;79.46;99875.13;5020425;28;45627;-86
2021/09/15 04:50:00;;;;;;;;;6.75;4.00;;;;;19.81;78.98;99880.34;5037011;28;45246;-84
2021/09/15 04:52:25;;;;;;;;;4.00;4.00;;;;;19.75;79.78;99875.56;5038242;28;45280;-85
2021/09/15 04:54:51;;;;;;;;;3.75;3.75;;;;;19.71;79.92;99876.03;5019665;28;47276;-85
2021/09/15 04:57:16;;;;;;;;;5.75;4.00;;;;;19.61;79.96;99876.16;5020269;28;45806;-85
2021/09/15 04:59:42;;;;;;;;;3.25;3.25;;;;;19.59;79.80;99876.31;5038159;28;45223;-85
2021/09/15 05:02:07;;;;;;;;;4.75;4.75;;;;;19.51;80.01;99864.63;5037849;28;45262;-85
2021/09/15 05:04:32;;;;;;;;;4.00;4.00;;;;;19.56;80.13;99879.34;5019815;28;47214;-85
2021/09/15 05:06:58;;;;;;;;;4.50;4.50;;;;;19.58;80.38;99879.16;5020153;28;45389;-85
2021/09/15 05:09:23;;;;;;;;;5.75;5.00;;;;;19.65;80.52;99888.31;5037766;28;45356;-85
2021/09/15 05:11:48;;;;;;;;;4.25;4.25;;;;;19.67;80.14;99895.25;5037426;28;45218;-85
2021/09/15 05:14:13;;;;;;;;;4.50;4.50;;;;;19.71;80.04;99892.22;5037547;28;45192;-88
2021/09/15 05:16:39;;;;;;;;;6.00;4.25;;;;;19.65;79.91;99873.00;5020438;28;45335;-90
2021/09/15 05:19:04;;;;;;;;;4.00;4.00;;;;;19.66;80.37;99876.53;5036940;28;45256;-88
2021/09/15 05:21:29;;;;;;;;;6.25;4.00;;;;;19.68;80.14;99882.59;5020341;28;45317;-89
2021/09/15 05:23:55;;;;;;;;;5.00;4.00;;;;;19.68;80.40;99879.91;5020098;28;48194;-89
2021/09/15 05:26:20;;;;;;;;;4.75;4.75;;;;;19.72;79.85;99892.06;5019981;28;45648;-88
2021/09/15 05:28:46;;;;;;;;;5.00;4.25;;;;;19.74;80.22;99889.19;5019992;28;45291;-89
2021/09/15 05:31:11;;;;;;;;;8.50;5.75;;;;;19.76;80.09;99884.50;5020662;28;45212;-88
2021/09/15 05:33:36;;;;;;;;;6.00;4.75;;;;;19.86;79.95;99898.75;5019937;28;47163;-87
2021/09/15 05:36:02;;;;;;;;;4.75;3.50;;;;;19.88;80.33;99899.44;5019680;28;45266;-89
2021/09/15 05:38:27;;;;;;;;;5.25;4.00;;;;;19.82;80.37;99898.22;5019849;28;45151;-89
2021/09/15 05:40:53;;;;;;;;;6.25;4.00;;;;;19.88;80.20;99901.28;5020316;28;45173;-88
2021/09/15 05:43:18;;;;;;;;;4.00;4.00;;;;;19.83;79.98;99899.91;5036463;28;47240;-89
2021/09/15 05:45:43;;;;;;;;;3.50;3.50;;;;;19.87;80.28;99907.69;5037927;28;45199;-89
2021/09/15 05:48:09;;;;;;;;;4.25;4.25;;;;;19.81;80.09;99901.09;5019877;28;45196;-89
2021/09/15 05:50:34;;;;;;;;;5.50;5.25;;;;;19.95;80.40;99921.19;5019104;28;45218;-90
2021/09/15 05:52:59;;;;;;;;;6.25;5.00;;;;;19.93;80.05;99909.75;5019615;28;48401;-89
2021/09/15 05:55:25;;;;;;;;;4.00;4.00;;;;;19.79;80.51;99884.22;5019248;28;45208;-89
2021/09/15 05:57:50;;;;;;;;;5.25;5.00;;;;;19.95;80.77;99910.41;5019487;28;45320;-89
2021/09/15 06:00:16;;;;;;;;;7.75;5.00;;;;;19.93;80.53;99909.75;5037463;28;45296;-89
2021/09/15 06:02:41;;;;;;;;;5.25;5.25;;;;;20.00;80.37;99917.00;5019397;28;47949;-89
2021/09/15 06:05:07;;;;;;;;;4.75;4.75;;;;;19.99;80.68;99917.19;5019557;28;46029;-88
2021/09/15 06:07:32;;;;;;;;;6.00;4.25;;;;;19.85;80.23;99890.81;5019096;28;45346;-88
2021/09/15 06:09:58;;;;;;;;;6.25;5.25;;;;;19.99;80.02;99919.88;5019210;28;45220;-89
2021/09/15 06:12:23;;;;;;;;;4.25;4.25;;;;;19.96;80.48;99914.81;5036780;28;46379;-90
2021/09/15 06:14:48;;;;;;;;;7.00;4.50;;;;;19.99;79.99;99922.56;5035732;28;45496;-88
2021/09/15 06:17:14;;;;;;;;;5.00;5.00;;;;;20.10;80.38;99943.03;5019564;28;45224;-91
2021/09/15 06:19:39;;;;;;;;;6.25;5.00;;;;;20.02;80.56;99926.81;5019291;28;45559;-90
2021/09/15 06:22:04;;;;;;;;;5.00;5.00;;;;;20.01;80.13;99920.56;5037098;28;45349;-88
2021/09/15 06:24:30;;;;;;;;;5.50;5.50;;;;;20.02;80.57;99924.09;5019560;28;45772;-88
2021/09/15 06:26:55;;;;;;;;;4.75;4.75;;;;;20.12;80.37;99930.22;5019390;28;45367;-89
2021/09/15 06:29:20;;;;;;;;;4.25;4.25;;;;;20.08;80.24;99931.53;5037415;28;45302;-88
2021/09/15 06:31:47;;;;;;;;;6.00;4.25;;;;;19.98;80.03;99920.88;5019002;28;48027;-88
2021/09/15 06:34:12;;;;;;;;;4.75;4.75;;;;;20.08;80.57;99942.34;5018778;28;45500;-89
2021/09/15 06:36:39;;;;;;;;;5.00;5.00;;;;;19.96;80.55;99915.66;5019251;28;45145;-89
2021/09/15 06:39:06;;;;;;;;;4.00;3.75;;;;;20.16;79.71;99954.00;5037073;28;45243;-89
2021/09/15 06:41:31;;;;;;;;;9.25;5.50;;;;;19.96;80.07;99912.13;5019451;28;48079;-87
2021/09/15 06:43:57;;;;;;;;;6.00;5.00;;;;;20.05;80.06;99929.19;5037247;28;45311;-89
2021/09/15 06:46:23;;;;;;;;;8.00;5.25;;;;;20.04;79.98;99935.56;5035524;28;45337;-89
2021/09/15 06:48:49;;;;;;;;;6.00;4.00;;;;;19.93;80.60;99917.84;5037051;28;45304;-90
2021/09/15 06:51:15;;;;;;;;;4.25;4.25;;;;;20.09;80.18;99936.78;5018570;28;47321;-89
2021/09/15 06:53:40;;;;;;;;;5.00;5.00;;;;;20.05;79.97;99937.28;5018389;28;45137;-89
2021/09/15 06:56:06;;;;;;;;;4.00;4.00;;;;;20.05;80.12;99940.84;5018862;28;45250;-89
2021/09/15 06:58:31;;;;;;;;;6.50;5.50;;;;;19.99;79.86;99939.63;5018774;28;45446;-90
2021/09/15 07:00:56;;;;;;;;;8.00;5.00;;;;;19.95;79.81;99926.59;5037052;28;45523;-89
2021/09/15 07:03:22;;;;;;;;;5.00;5.00;;;;;20.12;80.14;99954.50;5037067;28;45167;-90
2021/09/15 07:05:47;;;;;;;;;7.00;5.00;;;;;20.01;80.02;99939.47;5038086;28;45158;-89
2021/09/15 07:08:12;;;;;;;;;6.25;4.25;;;;;20.14;80.87;99964.13;5035734;28;45092;-90
2021/09/15 07:10:40;;;;;;;;;8.00;7.00;;;;;20.02;80.30;99938.44;5018073;28;47732;-90
2021/09/15 07:13:06;;;;;;;;;5.50;5.25;;;;;20.07;80.01;99944.22;5018079;28;45573;-90
2021/09/15 07:15:31;;;;;;;;;6.00;6.00;;;;;20.18;79.84;99970.06;5035415;28;45155;-89
2021/09/15 07:17:57;;;;;;;;;5.75;5.75;;;;;20.24;80.13;99980.22;5035191;28;45212;-89
2021/09/15 07:20:22;;;;;;;;;4.25;4.25;;;;;19.98;80.27;99937.94;5018214;28;47819;-90
2021/09/15 07:22:48;;;;;;;;;6.25;6.25;;;;;20.17;80.50;99969.22;5018309;28;45211;-88
2021/09/15 07:25:13;;;;;;;;;10.00;8.00;;;;;20.22;80.31;99979.50;5034789;28;45626;-91
2021/09/15 07:27:39;;;;;;;;;8.00;7.00;;;;;20.10;80.75;99953.84;5018549;28;45410;-90
2021/09/15 07:30:05;;;;;;;;;9.00;7.00;;;;;20.32;80.04;99985.66;5034389;28;48100;-89
2021/09/15 07:32:30;;;;;;;;;10.00;9.00;;;;;20.24;80.55;99972.13;5017862;28;45466;-90
2021/09/15 07:34:56;;;;;;;;;10.00;8.00;;;;;20.13;80.29;99959.75;5017856;28;45212;-89
2021/09/15 07:37:21;;;;;;;;;10.00;10.00;;;;;20.31;80.20;99989.34;5036232;28;45219;-89
2021/09/15 07:39:46;;;;;;;;;7.25;7.25;;;;;20.30;80.28;99990.34;5017382;28;46322;-90
2021/09/15 07:42:12;;;;;;;;;9.25;8.25;;;;;20.37;80.47;100000.53;5017921;28;45460;-90
2021/09/15 07:44:37;;;;;;;;;7.25;7.00;;;;;20.36;79.90;99996.97;5017901;28;45184;-90
2021/09/15 07:47:03;;;;;;;;;10.00;8.00;;;;;20.12;80.04;99965.31;5017832;28;45213;-90
2021/09/15 07:49:28;;;;;;;;;8.50;7.75;;;;;20.32;80.02;99998.28;5017564;28;47396;-90
2021/09/15 07:51:54;;;;;;;;;10.75;9.75;;;;;20.20;80.38;99978.84;5017616;28;45876;-90
2021/09/15 07:54:19;;;;;;;;;7.50;7.00;;;;;20.20;80.02;99978.84;5017619;28;45712;-89
2021/09/15 07:56:45;;;;;;;;;6.00;6.00;;;;;20.22;80.59;99978.69;5017263;28;45237;-89
2021/09/15 07:59:10;;;;;;;;;9.00;7.75;;;;;20.28;80.65;99986.13;5034052;28;48265;-91
2021/09/15 08:01:35;;;;;;;;;9.75;7.00;;;;;20.29;80.53;99988.66;5017321;28;45208;-90
2021/09/15 08:04:01;;;;;;;;;8.25;8.00;;;;;20.09;80.66;99958.38;5034170;28;45275;-90
2021/09/15 08:06:26;;;;;;;;;11.25;8.75;;;;;20.27;80.98;99989.84;5017628;28;45439;-89
2021/09/15 08:08:52;;;;;;;;;8.75;8.75;;;;;20.34;80.73;99996.28;5017564;28;48019;-90
2021/09/15 08:11:18;;;;;;;;;10.00;9.00;;;;;20.32;80.73;99991.06;5017381;28;46013;-90
2021/09/15 08:13:44;;;;;;;;;8.00;8.00;;;;;20.28;80.72;99983.41;5018529;28;45251;-90
2021/09/15 08:16:09;;;;;;;;;9.75;8.00;;;;;20.41;80.50;100005.44;5020877;28;45451;-90
2021/09/15 08:18:35;;;;;;;;;10.00;9.00;;;;;20.44;80.94;100009.66;5020708;28;48069;-89
2021/09/15 08:21:02;;;;;;;;;7.25;7.00;;;;;20.44;80.90;100013.19;5020990;28;45281;-90
2021/09/15 08:23:28;;;;;;;;;10.75;9.25;;;;;20.45;80.56;100017.59;5020837;28;45254;-90
2021/09/15 08:25:55;;;;;;;;;13.25;11.25;;;;;20.26;80.50;99991.69;5038758;28;45161;-90
2021/09/15 08:28:21;;;;;;;;;14.00;9.50;;;;;20.43;80.79;100016.91;5020980;28;47415;-93
2021/09/15 08:30:47;;;;;;;;;10.25;8.75;;;;;20.43;80.72;100019.59;5020783;28;45711;-91
2021/09/15 08:33:12;;;;;;;;;11.00;9.75;;;;;20.27;80.31;99987.16;5039031;28;45307;-90
2021/09/15 08:35:37;;;;;;;;;11.25;9.25;;;;;20.43;80.68;100025.00;5020303;28;45237;-89
2021/09/15 08:38:03;;;;;;;;;10.50;10.00;;;;;20.44;81.20;100024.00;5037087;28;47183;-90
2021/09/15 08:40:28;;;;;;;;;13.50;10.50;;;;;20.44;80.59;100017.75;5020774;28;45654;-91
2021/09/15 08:42:53;;;;;;;;;11.75;11.75;;;;;20.31;80.66;99989.34;5038410;28;45214;-91
2021/09/15 08:45:23;;;;;;;;;10.75;8.75;;;;;20.45;80.54;100009.50;5022268;28;45283;-89
2021/09/15 08:47:49;;;;;;;;;12.75;10.75;;;;;20.50;80.92;100017.09;5021975;28;48014;-92
2021/09/15 08:50:16;;;;;;;;;10.25;10.00;;;;;20.52;80.46;100020.47;5022017;28;45869;-91
2021/09/15 08:52:42;;;;;;;;;12.00;9.75;;;;;20.60;81.11;100033.19;5021802;28;45159;-91
2021/09/15 08:55:08;;;;;;;;;11.00;9.75;;;;;20.62;80.71;100034.72;5039403;28;45188;-89
2021/09/15 08:57:34;;;;;;;;;11.25;9.25;;;;;20.57;80.74;100020.84;5021927;28;47194;-90
2021/09/15 08:59:59;;;;;;;;;12.50;11.50;;;;;20.67;80.41;100031.56;5021456;28;45331;-92
2021/09/15 09:02:33;;;;;;;;;11.75;11.00;;;;;20.42;80.30;99992.75;5040159;28;45402;-91
2021/09/15 09:05:00;;;;;;;;;15.00;12.00;;;;;20.41;80.64;100000.03;5039360;28;45246;-89
2021/09/15 09:07:27;;;;;;;;;12.50;10.50;;;;;20.68;80.88;100042.19;5038926;28;45505;-90
2021/09/15 09:09:55;;;;;;;;;13.25;12.50;;;;;20.47;80.69;100007.47;5019998;28;45485;-89
2021/09/15 09:12:27;;;;;;;;;13.25;12.25;;;;;20.62;80.18;100037.41;5020011;28;45212;-90
2021/09/15 09:15:10;;;;;;;;;13.50;13.50;;;;;20.67;80.45;100045.91;5020044;28;45248;-91
2021/09/15 09:17:35;;;;;;;;;13.00;13.00;;;;;20.56;81.00;100018.31;5020103;28;47140;-91
2021/09/15 09:20:15;;;;;;;;;13.25;12.50;;;;;20.41;81.17;99996.47;5020020;28;45178;-89
2021/09/15 09:23:05;;;;;;;;;14.00;13.00;;;;;20.69;81.44;100048.44;5020629;28;45287;-89
2021/09/15 09:25:44;;;;;;;;;11.00;11.00;;;;;20.64;81.13;100035.38;5019337;28;45373;-91
2021/09/15 09:28:33;;;;;;;;;13.00;12.50;;;;;20.61;81.42;100033.03;5020613;28;48225;-90
2021/09/15 09:31:02;;;;;;;;;13.75;12.00;;;;;20.73;81.62;100044.41;5019856;28;45726;-91
2021/09/15 09:33:28;;;;;;;;;11.75;11.75;;;;;20.75;81.10;100050.50;5019839;28;45213;-91
2021/09/15 09:36:01;;;;;;;;;10.00;9.00;;;;;20.67;81.77;100037.78;5037874;28;45182;-90
2021/09/15 09:38:32;;;;;;;;;8.00;8.00;;;;;20.55;81.70;100011.22;5019739;28;47026;-90
2021/09/15 09:40:59;;;;;;;;;7.50;7.00;;;;;20.58;81.43;100019.84;5020235;28;45157;-91
2021/09/15 09:43:26;;;;;;;;;7.25;7.25;;;;;20.60;81.86;100003.47;5019649;28;45357;-92
2021/09/15 09:45:51;;;;;;;;;7.25;7.00;;;;;20.82;82.17;100040.72;5036271;28;45160;-91
2021/09/15 09:48:39;;;;;;;;;7.00;7.00;;;;;20.99;82.24;100059.66;5019504;28;48190;-89
2021/09/15 09:51:21;;;;;;;;;6.00;6.00;;;;;20.80;82.10;100009.47;5019415;28;45955;-90
2021/09/15 09:53:48;;;;;;;;;7.00;5.75;;;;;21.01;82.10;100036.03;5020307;28;45221;-90
2021/09/15 09:56:14;;;;;;;;;7.50;7.50;;;;;21.09;81.98;100029.78;5038094;28;45229;-91
2021/09/15 09:58:43;;;;;;;;;8.00;8.00;;;;;21.11;81.89;100025.09;5019674;28;47308;-90
2021/09/15 10:01:15;;;;;;;;;6.00;6.00;;;;;21.17;81.42;100024.41;5019653;28;45540;-91
2021/09/15 10:03:40;;;;;;;;;7.50;6.75;;;;;21.18;81.95;100021.53;5019781;28;45280;-91
2021/09/15 10:06:06;;;;;;;;;8.25;7.00;;;;;21.35;81.51;100040.50;5019752;28;45224;-91
2021/09/15 10:08:34;;;;;;;;;6.50;6.00;;;;;21.34;81.29;100030.69;5036108;28;47984;-91
2021/09/15 10:11:00;;;;;;;;;8.00;8.00;;;;;21.34;81.51;100012.59;5019227;28;45847;-92
2021/09/15 10:13:26;;;;;;;;;7.75;7.75;;;;;21.45;81.55;100019.53;5019312;28;45222;-91
2021/09/15 10:15:57;;;;;;;;;10.00;8.75;;;;;21.65;81.29;100039.00;5037585;28;45333;-91
2021/09/15 10:18:23;;;;;;;;;8.50;8.00;;;;;21.84;82.99;100028.84;5019477;28;47421;-91
2021/09/15 10:20:53;;;;;;;;;8.25;7.25;;;;;22.30;82.54;100047.19;5019468;28;45475;-91
2021/09/15 10:23:34;;;;;;;;;9.00;9.00;;;;;22.67;80.76;100061.97;5019460;28;45122;-90
2021/09/15 10:26:19;;;;;;;;;8.00;7.00;;;;;22.77;79.66;100054.47;5019747;28;45238;-91
2021/09/15 10:29:12;;;;;;;;;9.25;9.00;;;;;22.79;78.71;100051.59;5019616;28;47291;-91
2021/09/15 10:32:03;;;;;;;;;9.75;8.25;;;;;22.75;78.83;100051.09;5019228;28;45525;-90
2021/09/15 10:34:41;;;;;;;;;8.50;8.50;;;;;22.77;78.73;100059.06;5028590;28;45231;-89
2021/09/15 10:37:12;;;;;;;;;9.75;8.50;;;;;22.85;79.72;100057.16;5019176;28;45348;-92
2021/09/15 10:40:01;;;;;;;;;8.00;8.00;;;;;23.05;78.91;100059.44;5019133;28;48184;-91
2021/09/15 10:42:38;;;;;;;;;8.25;8.00;;;;;23.21;77.67;100056.63;5019412;28;45556;-90
2021/09/15 10:45:10;;;;;;;;;8.75;8.75;;;;;23.29;77.36;100053.03;5022872;28;45339;-90
2021/09/15 10:47:37;;;;;;;;;7.50;7.50;;;;;23.30;77.61;100045.72;5023024;28;45247;-91
2021/09/15 10:50:03;;;;;;;;;7.00;7.00;;;;;23.37;77.14;100047.56;5018746;28;47356;-91
2021/09/15 10:52:30;;;;;;;;;9.00;9.00;;;;;23.48;76.55;100056.28;5019020;28;45335;-90
2021/09/15 10:54:57;;;;;;;;;8.25;7.75;;;;;23.52;76.15;100063.88;5018113;28;45538;-91
2021/09/15 10:57:39;;;;;;;;;9.00;9.00;;;;;23.52;76.20;100058.44;5018995;28;45113;-89
2021/09/15 11:00:07;;;;;;;;;9.00;8.00;;;;;23.60;76.74;100058.38;5018300;28;47139;-89
2021/09/15 11:02:37;;;;;;;;;9.75;9.75;;;;;23.53;76.08;100043.88;5018789;28;45287;-90
2021/09/15 11:05:27;;;;;;;;;9.00;9.00;;;;;23.68;75.22;100064.78;5018505;28;45461;-89
2021/09/15 11:07:59;;;;;;;;;9.25;8.25;;;;;23.66;75.55;100061.38;5018775;28;45255;-90
2021/09/15 11:10:33;;;;;;;;;8.75;7.75;;;;;23.59;75.36;100067.53;5018456;28;48333;-92
2021/09/15 11:13:02;;;;;;;;;11.75;9.25;;;;;23.52;75.79;100068.47;5018355;28;45758;-89
2021/09/15 11:15:33;;;;;;;;;8.00;8.00;;;;;23.41;75.49;100067.84;5018570;28;45251;-89
2021/09/15 11:18:00;;;;;;;;;9.00;8.25;;;;;23.32;76.15;100071.66;5036620;28;45243;-89
2021/09/15 11:20:28;;;;;;;;;5.50;5.50;;;;;23.07;76.35;100041.09;5018462;28;47283;-90
2021/09/15 11:22:55;;;;;;;;;5.50;5.25;;;;;23.16;75.87;100075.31;5036569;28;45177;-89
2021/09/15 11:25:25;;;;;;;;;4.50;4.50;;;;;22.80;76.02;100032.44;5018112;28;45278;-89
2021/09/15 11:28:16;;;;;;;;;4.00;4.00;;;;;22.96;76.25;100071.31;5018950;28;45315;-89
2021/09/15 11:30:51;;;;;;;;;3.00;3.00;;;;;22.89;76.78;100077.47;5018435;28;47321;-89
2021/09/15 11:33:34;;;;;;;;;5.25;5.00;;;;;22.75;76.70;100059.25;5018484;28;45276;-88
2021/09/15 11:36:03;;;;;;;;;3.75;3.00;;;;;22.61;76.72;100035.59;5018442;28;45299;-89
2021/09/15 11:38:32;;;;;;;;;3.25;2.50;;;;;22.80;77.52;100066.84;5018817;28;45214;-90